Time;durP1;ratioP1;P1;durP2;ratioP2;P2;SDS_P1;SDS_P2;PMS_P1;PMS_P2;Temp;Humidity;BMP_temperature;BMP_pressure;BME280_temperature;BME280_humidity;BME280_pressure;Samples;Min_cycle;Max_cycle;Signal;HPM_P1;HPM_P2
2020/12/05 00:08:33;;;;;;;1.30;0.95;;;10.70;59.10;;;;;;20730127;28;20042;-84
2020/12/05 00:18:34;;;;;;;3.47;0.88;;;10.70;59.20;;;;;;20672667;28;20043;-84
2020/12/05 00:28:35;;;;;;;0.75;0.65;;;10.70;59.30;;;;;;20672292;28;20384;-85
2020/12/05 00:38:36;;;;;;;1.58;1.15;;;10.70;59.40;;;;;;20671267;28;20041;-85
2020/12/05 00:48:38;;;;;;;1.50;1.30;;;10.70;59.30;;;;;;20670638;28;20045;-85
2020/12/05 00:58:39;;;;;;;1.75;1.00;;;10.70;59.40;;;;;;20670714;28;20069;-85
2020/12/05 01:08:43;;;;;;;1.40;0.52;;;10.70;59.40;;;;;;20654369;28;20034;-85
2020/12/05 01:18:44;;;;;;;2.75;1.05;;;10.70;59.40;;;;;;20654033;28;20038;-83
2020/12/05 01:28:47;;;;;;;1.35;0.65;;;10.70;59.40;;;;;;20668717;28;20109;-85
2020/12/05 01:38:48;;;;;;;3.22;1.48;;;10.60;59.30;;;;;;20685786;28;20050;-86
2020/12/05 01:48:52;;;;;;;3.28;1.83;;;10.60;59.40;;;;;;20668349;28;20065;-85
2020/12/05 01:58:53;;;;;;;2.20;1.23;;;10.60;59.30;;;;;;20703353;28;20107;-86
2020/12/05 02:09:17;;;;;;;1.83;1.02;;;10.60;59.40;;;;;;20684016;28;20046;-84
2020/12/05 02:19:19;;;;;;;2.70;1.10;;;10.60;59.40;;;;;;20668962;28;20042;-84
2020/12/05 02:29:19;;;;;;;1.42;0.80;;;10.60;59.50;;;;;;20696675;28;20030;-85
2020/12/05 02:39:21;;;;;;;1.20;1.00;;;10.60;59.60;;;;;;20696807;28;20049;-85
2020/12/05 02:49:21;;;;;;;2.75;1.63;;;10.70;59.60;;;;;;20662451;28;20042;-85
2020/12/05 02:59:22;;;;;;;0.80;0.45;;;10.60;59.50;;;;;;20661920;28;20038;-85
2020/12/05 03:09:25;;;;;;;3.53;1.08;;;10.60;59.50;;;;;;20676822;28;20034;-85
2020/12/05 03:19:26;;;;;;;3.40;1.33;;;10.60;59.60;;;;;;20685383;28;20293;-85
2020/12/05 03:29:27;;;;;;;1.55;1.00;;;10.60;59.60;;;;;;20675536;28;20041;-85
2020/12/05 03:39:28;;;;;;;2.42;1.10;;;10.60;59.60;;;;;;20653088;28;20050;-85
2020/12/05 03:49:32;;;;;;;4.25;1.15;;;10.60;59.60;;;;;;20657347;28;20102;-85
2020/12/05 03:59:33;;;;;;;2.00;1.13;;;10.60;59.60;;;;;;20698213;28;20464;-85
2020/12/05 04:09:36;;;;;;;2.75;1.30;;;10.50;59.50;;;;;;20671828;28;20035;-85
2020/12/05 04:19:37;;;;;;;4.28;1.38;;;10.50;59.60;;;;;;20672004;28;20049;-86
2020/12/05 04:29:39;;;;;;;2.05;1.48;;;10.50;59.60;;;;;;20686659;28;20193;-85
2020/12/05 04:39:43;;;;;;;2.60;1.80;;;10.60;59.70;;;;;;20649457;28;20040;-86
2020/12/05 04:49:44;;;;;;;2.55;0.88;;;10.50;59.60;;;;;;20670552;28;20046;-84
2020/12/05 04:59:44;;;;;;;3.83;1.02;;;10.50;59.60;;;;;;20669501;28;20512;-85
2020/12/05 05:09:52;;;;;;;3.20;1.65;;;10.50;59.60;;;;;;20685850;28;20053;-85
2020/12/05 05:19:52;;;;;;;1.92;1.38;;;10.60;59.90;;;;;;20685707;28;20046;-86
2020/12/05 05:29:54;;;;;;;2.58;1.10;;;10.70;59.90;;;;;;20658606;28;20122;-86
2020/12/05 05:39:56;;;;;;;2.25;1.42;;;10.80;59.70;;;;;;20685624;28;20032;-86
2020/12/05 05:49:58;;;;;;;2.78;1.38;;;11.00;59.30;;;;;;20660595;28;20042;-85
2020/12/05 05:59:59;;;;;;;1.58;1.13;;;11.20;58.90;;;;;;20698708;28;20450;-85
2020/12/05 06:10:02;;;;;;;2.33;1.27;;;11.40;58.40;;;;;;20674814;28;20071;-85
2020/12/05 06:20:04;;;;;;;2.75;1.77;;;11.50;57.90;;;;;;20701028;28;20037;-84
2020/12/05 06:30:06;;;;;;;1.60;1.08;;;11.60;57.40;;;;;;20708928;28;20034;-85
2020/12/05 06:40:08;;;;;;;6.78;1.92;;;11.70;57.70;;;;;;20686822;28;20044;-84
2020/12/05 06:50:10;;;;;;;3.72;1.75;;;11.70;56.70;;;;;;20668955;28;20088;-84
2020/12/05 07:00:24;;;;;;;6.45;2.20;;;11.50;56.60;;;;;;20684359;28;20513;-86
2020/12/05 07:10:50;;;;;;;2.70;1.67;;;11.40;56.70;;;;;;20667799;28;20034;-83
2020/12/05 07:20:54;;;;;;;7.93;2.40;;;11.30;57.10;;;;;;20683550;28;20042;-86
2020/12/05 07:30:55;;;;;;;3.83;1.92;;;11.20;57.40;;;;;;20673669;28;20038;-85
2020/12/05 07:40:56;;;;;;;2.58;1.63;;;11.10;57.40;;;;;;20671896;28;20033;-78
2020/12/05 07:50:56;;;;;;;3.83;2.28;;;11.10;57.70;;;;;;20637694;28;20040;-84
2020/12/05 08:01:02;;;;;;;3.55;1.83;;;11.00;58.00;;;;;;20655512;28;20042;-77
2020/12/05 08:11:06;;;;;;;2.30;1.95;;;11.00;58.00;;;;;;20673377;28;20054;-81
2020/12/05 08:21:06;;;;;;;3.65;2.38;;;10.90;58.00;;;;;;20674318;28;20547;-81
2020/12/05 08:31:11;;;;;;;4.03;2.05;;;10.90;58.20;;;;;;20673528;28;20034;-77
2020/12/05 08:41:12;;;;;;;4.38;2.00;;;10.90;58.20;;;;;;20652533;28;20041;-84
2020/12/05 08:51:12;;;;;;;9.55;1.88;;;11.00;58.20;;;;;;20680569;28;20038;-84
2020/12/05 09:01:17;;;;;;;3.30;2.25;;;11.10;58.40;;;;;;21082932;23;20072;-78
2020/12/05 09:11:22;;;;;;;3.83;2.03;;;11.90;59.10;;;;;;20679797;28;20474;-75
2020/12/05 09:21:24;;;;;;;5.68;2.83;;;11.70;57.30;;;;;;20644422;28;20034;-77
2020/12/05 09:31:25;;;;;;;4.43;2.05;;;11.30;56.60;;;;;;20674985;28;20034;-77
2020/12/05 09:41:26;;;;;;;3.83;2.27;;;11.20;56.20;;;;;;20632778;28;20035;-78
2020/12/05 09:51:29;;;;;;;6.95;1.25;;;11.30;56.10;;;;;;20638783;28;20356;-77
2020/12/05 10:01:30;;;;;;;7.40;3.25;;;11.40;56.20;;;;;;20670850;28;20139;-83
2020/12/05 10:11:31;;;;;;;3.92;2.35;;;11.30;55.80;;;;;;20661851;28;20513;-79
2020/12/05 10:21:31;;;;;;;11.23;3.90;;;11.20;55.90;;;;;;20659771;28;20030;-73
2020/12/05 10:31:33;;;;;;;5.55;3.00;;;11.10;55.30;;;;;;20667798;28;20041;-77
2020/12/05 10:41:36;;;;;;;6.43;3.40;;;11.30;55.30;;;;;;20633904;28;20034;-79
2020/12/05 10:51:37;;;;;;;7.72;3.15;;;11.50;55.20;;;;;;20657420;28;20041;-74
2020/12/05 11:01:37;;;;;;;69.80;22.08;;;11.60;55.10;;;;;;20659047;28;20456;-76
2020/12/05 11:11:38;;;;;;;54.72;15.45;;;11.90;55.10;;;;;;20668752;28;20600;-71
2020/12/05 11:21:43;;;;;;;34.45;14.13;;;11.90;54.70;;;;;;20667358;28;20038;-79
2020/12/05 11:31:43;;;;;;;35.97;13.13;;;11.80;54.20;;;;;;20632254;28;20045;-74
2020/12/05 11:41:47;;;;;;;32.45;12.13;;;11.70;54.30;;;;;;20648272;28;20042;-74
2020/12/05 11:51:49;;;;;;;26.23;13.07;;;11.50;54.40;;;;;;20647767;28;20049;-74
2020/12/05 12:01:53;;;;;;;25.52;9.65;;;11.40;54.70;;;;;;20668260;28;20038;-78
2020/12/05 12:11:55;;;;;;;16.83;6.82;;;11.40;55.10;;;;;;20663168;28;20050;-77
2020/12/05 12:21:55;;;;;;;14.80;5.00;;;11.40;55.40;;;;;;20664702;28;20050;-76
2020/12/05 12:31:59;;;;;;;17.08;5.28;;;11.40;55.70;;;;;;20658970;28;20026;-72
2020/12/05 12:42:01;;;;;;;9.65;4.47;;;11.20;55.70;;;;;;20661235;28;20050;-72
2020/12/05 12:52:02;;;;;;;12.35;4.85;;;11.10;56.00;;;;;;20661721;28;20384;-73
2020/12/05 13:02:03;;;;;;;12.70;4.80;;;11.10;56.40;;;;;;20622685;28;20054;-73
2020/12/05 13:12:05;;;;;;;9.38;3.40;;;11.00;56.70;;;;;;20645684;28;20070;-80
2020/12/05 13:22:06;;;;;;;4.80;2.60;;;11.00;56.90;;;;;;20659738;28;20074;-73
2020/12/05 13:32:09;;;;;;;4.22;2.55;;;11.00;57.20;;;;;;20626541;28;20113;-74
2020/12/05 13:42:09;;;;;;;13.45;3.50;;;11.00;57.40;;;;;;20643014;28;20566;-74
2020/12/05 13:52:11;;;;;;;8.88;3.50;;;10.90;57.60;;;;;;20648856;28;20042;-76
2020/12/05 14:02:14;;;;;;;6.90;2.80;;;10.90;57.80;;;;;;20640486;28;20038;-75
2020/12/05 14:12:16;;;;;;;8.27;3.05;;;10.90;57.90;;;;;;20652772;28;20416;-74
2020/12/05 14:22:18;;;;;;;6.32;3.08;;;11.00;58.10;;;;;;20671523;28;20057;-73
2020/12/05 14:32:19;;;;;;;8.43;3.13;;;11.20;58.30;;;;;;20640894;28;20058;-74
2020/12/05 14:42:20;;;;;;;4.90;2.70;;;11.50;58.00;;;;;;20637402;28;20042;-76
2020/12/05 14:52:24;;;;;;;5.80;3.53;;;11.80;57.80;;;;;;20637231;28;20290;-83
2020/12/05 15:02:24;;;;;;;4.00;2.40;;;12.00;57.00;;;;;;20670488;28;20037;-74
2020/12/05 15:12:25;;;;;;;3.57;1.93;;;12.10;56.50;;;;;;20652205;28;20489;-77
2020/12/05 15:22:27;;;;;;;2.30;1.73;;;12.20;56.30;;;;;;20651876;28;20313;-78
2020/12/05 15:32:28;;;;;;;4.00;2.20;;;12.10;55.70;;;;;;20637429;28;20300;-77
2020/12/05 15:42:29;;;;;;;4.35;2.47;;;11.90;55.60;;;;;;20668148;28;20046;-82
2020/12/05 15:52:36;;;;;;;2.72;2.05;;;11.70;55.90;;;;;;20628916;28;20121;-82
2020/12/05 16:02:40;;;;;;;3.33;1.40;;;11.60;56.30;;;;;;20659140;28;20061;-83
2020/12/05 16:12:40;;;;;;;2.92;1.38;;;11.40;56.60;;;;;;20668673;28;20116;-80
2020/12/05 16:22:41;;;;;;;3.25;1.60;;;11.40;56.90;;;;;;20666868;28;20038;-78
2020/12/05 16:32:42;;;;;;;2.08;1.63;;;11.30;57.20;;;;;;20647732;28;20039;-76
2020/12/05 16:42:43;;;;;;;2.17;1.60;;;11.30;57.30;;;;;;20648379;28;20074;-75
2020/12/05 16:52:44;;;;;;;2.30;1.42;;;11.20;57.50;;;;;;20642816;28;20042;-78
2020/12/05 17:02:44;;;;;;;3.97;1.33;;;11.20;57.60;;;;;;20647500;28;20046;-79
2020/12/05 17:12:45;;;;;;;2.30;0.95;;;11.20;57.50;;;;;;20657216;28;20338;-81
2020/12/05 17:22:46;;;;;;;5.45;1.77;;;11.10;57.60;;;;;;20626859;28;20141;-81
2020/12/05 17:32:46;;;;;;;4.35;1.50;;;11.00;57.80;;;;;;20646386;28;20049;-76
2020/12/05 17:42:47;;;;;;;3.22;1.33;;;11.00;57.80;;;;;;20642023;28;20117;-79
2020/12/05 17:52:48;;;;;;;2.05;1.13;;;11.00;58.10;;;;;;20673691;28;20038;-80
2020/12/05 18:02:49;;;;;;;4.53;1.35;;;11.00;58.20;;;;;;20636513;28;20041;-79
2020/12/05 18:12:52;;;;;;;5.70;1.42;;;10.90;58.10;;;;;;20670879;28;20036;-78
2020/12/05 18:22:52;;;;;;;3.50;2.00;;;10.90;58.20;;;;;;20671351;28;20026;-78
2020/12/05 18:32:53;;;;;;;1.13;0.45;;;10.90;58.30;;;;;;20656468;28;20034;-77
2020/12/05 18:42:56;;;;;;;3.35;1.17;;;10.90;58.30;;;;;;20671174;28;20030;-80
2020/12/05 18:52:56;;;;;;;1.95;0.90;;;10.90;58.40;;;;;;20639791;28;20073;-78
2020/12/05 19:02:57;;;;;;;2.53;1.00;;;10.90;58.40;;;;;;20628360;28;20444;-78
2020/12/05 19:12:58;;;;;;;2.22;1.23;;;10.80;58.50;;;;;;20639358;28;20379;-79
2020/12/05 19:23:03;;;;;;;2.22;1.33;;;10.80;59.20;;;;;;20668955;28;20050;-78
2020/12/05 19:33:05;;;;;;;3.75;1.15;;;10.80;58.70;;;;;;20676213;28;20037;-79
2020/12/05 19:43:06;;;;;;;1.77;0.98;;;10.80;58.70;;;;;;20650557;28;20030;-79
2020/12/05 19:53:07;;;;;;;2.67;1.00;;;10.80;58.80;;;;;;20632454;28;20041;-82
2020/12/05 20:03:07;;;;;;;2.15;1.35;;;10.80;58.90;;;;;;20668239;28;20051;-81
2020/12/05 20:13:08;;;;;;;2.03;0.93;;;10.80;59.00;;;;;;20651287;28;20054;-79
2020/12/05 20:23:09;;;;;;;1.98;1.20;;;10.80;59.10;;;;;;20666893;28;20045;-79
2020/12/05 20:33:09;;;;;;;3.97;0.95;;;10.80;59.10;;;;;;20658687;28;20049;-80
2020/12/05 20:43:11;;;;;;;2.25;1.13;;;10.80;59.20;;;;;;20663699;28;20031;-80
2020/12/05 20:53:12;;;;;;;2.35;1.15;;;10.80;59.30;;;;;;20665877;28;20737;-79
2020/12/05 21:03:12;;;;;;;1.92;1.10;;;10.80;59.30;;;;;;20659056;28;20042;-80
2020/12/05 21:13:13;;;;;;;1.60;0.82;;;10.80;59.20;;;;;;20641186;28;20030;-80
2020/12/05 21:23:13;;;;;;;2.40;1.02;;;10.80;59.30;;;;;;20636987;28;20149;-77
2020/12/05 21:33:16;;;;;;;1.85;1.25;;;10.70;59.30;;;;;;20642661;28;20361;-75
2020/12/05 21:43:18;;;;;;;2.28;1.30;;;10.70;59.20;;;;;;20628432;28;20428;-75
2020/12/05 21:53:22;;;;;;;2.35;1.50;;;10.70;59.40;;;;;;20636288;28;20046;-83
2020/12/05 22:03:22;;;;;;;2.95;1.15;;;10.70;59.30;;;;;;20657395;28;20054;-81
2020/12/05 22:13:27;;;;;;;5.22;2.35;;;10.70;59.40;;;;;;20659171;28;20046;-81
2020/12/05 22:23:32;;;;;;;3.45;0.90;;;10.70;59.40;;;;;;20662589;28;20076;-81
2020/12/05 22:33:32;;;;;;;2.03;1.08;;;10.70;59.40;;;;;;20678046;28;20034;-81
2020/12/05 22:43:33;;;;;;;2.40;1.38;;;10.70;59.40;;;;;;20665810;28;20069;-83
2020/12/05 22:53:35;;;;;;;1.63;1.17;;;10.70;59.40;;;;;;20670107;28;20030;-84
2020/12/05 23:03:37;;;;;;;3.30;1.45;;;10.70;59.60;;;;;;20652211;28;20049;-81
2020/12/05 23:13:39;;;;;;;2.08;1.83;;;10.70;59.50;;;;;;20669030;28;20026;-83
2020/12/05 23:23:40;;;;;;;1.83;1.08;;;10.70;59.60;;;;;;20648858;28;20037;-80
2020/12/05 23:44:07;;;;;;;3.50;1.08;;;10.60;59.70;;;;;;20639816;28;20118;-80
2020/12/05 23:54:17;;;;;;;3.60;1.30;;;10.60;59.60;;;;;;20619644;28;20277;-79
